sensor_id;sensor_type;location;lat;lon;timestamp;P1;durP1;ratioP1;P2;durP2;ratioP2
43664;SDS011;29263;48.172;11.484;2023-07-09T00:01:46;6.30;;;4.40;;
43664;SDS011;29263;48.172;11.484;2023-07-09T00:04:12;7.70;;;4.03;;
43664;SDS011;29263;48.172;11.484;2023-07-09T00:06:38;6.25;;;4.38;;
43664;SDS011;29263;48.172;11.484;2023-07-09T00:09:06;6.13;;;4.05;;
43664;SDS011;29263;48.172;11.484;2023-07-09T00:11:37;7.45;;;4.70;;
43664;SDS011;29263;48.172;11.484;2023-07-09T00:14:04;5.70;;;4.03;;
43664;SDS011;29263;48.172;11.484;2023-07-09T00:16:30;9.18;;;4.38;;
43664;SDS011;29263;48.172;11.484;2023-07-09T00:18:56;7.10;;;4.35;;
43664;SDS011;29263;48.172;11.484;2023-07-09T00:21:22;6.78;;;4.65;;
43664;SDS011;29263;48.172;11.484;2023-07-09T00:23:48;8.90;;;4.60;;
43664;SDS011;29263;48.172;11.484;2023-07-09T00:26:14;6.20;;;4.40;;
43664;SDS011;29263;48.172;11.484;2023-07-09T00:28:41;9.00;;;4.90;;
43664;SDS011;29263;48.172;11.484;2023-07-09T00:31:11;7.88;;;4.50;;
43664;SDS011;29263;48.172;11.484;2023-07-09T00:33:41;6.72;;;4.18;;
43664;SDS011;29263;48.172;11.484;2023-07-09T00:36:19;8.55;;;5.00;;
43664;SDS011;29263;48.172;11.484;2023-07-09T00:38:57;6.13;;;4.28;;
43664;SDS011;29263;48.172;11.484;2023-07-09T00:41:24;7.88;;;4.53;;
43664;SDS011;29263;48.172;11.484;2023-07-09T00:43:51;7.25;;;4.75;;
43664;SDS011;29263;48.172;11.484;2023-07-09T00:48:46;7.63;;;4.85;;
43664;SDS011;29263;48.172;11.484;2023-07-09T00:51:16;8.90;;;4.80;;
43664;SDS011;29263;48.172;11.484;2023-07-09T00:53:48;9.20;;;4.43;;
43664;SDS011;29263;48.172;11.484;2023-07-09T00:56:18;10.95;;;5.13;;
43664;SDS011;29263;48.172;11.484;2023-07-09T00:58:51;7.35;;;4.65;;
43664;SDS011;29263;48.172;11.484;2023-07-09T01:01:19;7.63;;;4.63;;
43664;SDS011;29263;48.172;11.484;2023-07-09T01:03:52;7.85;;;4.03;;
43664;SDS011;29263;48.172;11.484;2023-07-09T01:06:27;8.63;;;4.45;;
43664;SDS011;29263;48.172;11.484;2023-07-09T01:09:06;9.50;;;5.43;;
43664;SDS011;29263;48.172;11.484;2023-07-09T01:11:32;8.82;;;4.18;;
43664;SDS011;29263;48.172;11.484;2023-07-09T01:13:59;8.30;;;4.57;;
43664;SDS011;29263;48.172;11.484;2023-07-09T01:16:28;7.55;;;3.83;;
43664;SDS011;29263;48.172;11.484;2023-07-09T01:18:56;6.13;;;4.38;;
43664;SDS011;29263;48.172;11.484;2023-07-09T01:21:23;8.73;;;4.30;;
43664;SDS011;29263;48.172;11.484;2023-07-09T01:23:49;8.00;;;4.00;;
43664;SDS011;29263;48.172;11.484;2023-07-09T01:26:19;8.25;;;4.95;;
43664;SDS011;29263;48.172;11.484;2023-07-09T01:28:47;6.95;;;4.00;;
43664;SDS011;29263;48.172;11.484;2023-07-09T01:31:13;7.32;;;3.75;;
43664;SDS011;29263;48.172;11.484;2023-07-09T01:33:41;7.53;;;4.00;;
43664;SDS011;29263;48.172;11.484;2023-07-09T01:36:09;8.00;;;4.10;;
43664;SDS011;29263;48.172;11.484;2023-07-09T01:38:38;10.52;;;4.72;;
43664;SDS011;29263;48.172;11.484;2023-07-09T01:41:05;6.20;;;4.13;;
43664;SDS011;29263;48.172;11.484;2023-07-09T01:43:31;6.43;;;3.80;;
43664;SDS011;29263;48.172;11.484;2023-07-09T01:45:59;6.90;;;3.97;;
43664;SDS011;29263;48.172;11.484;2023-07-09T01:48:25;6.72;;;4.20;;
43664;SDS011;29263;48.172;11.484;2023-07-09T01:50:52;5.43;;;3.38;;
43664;SDS011;29263;48.172;11.484;2023-07-09T01:53:19;5.03;;;3.40;;
43664;SDS011;29263;48.172;11.484;2023-07-09T01:55:51;8.63;;;3.85;;
43664;SDS011;29263;48.172;11.484;2023-07-09T01:58:17;6.05;;;3.85;;
43664;SDS011;29263;48.172;11.484;2023-07-09T02:00:43;6.13;;;3.38;;
43664;SDS011;29263;48.172;11.484;2023-07-09T02:03:10;5.85;;;3.70;;
43664;SDS011;29263;48.172;11.484;2023-07-09T02:05:36;5.35;;;3.47;;
43664;SDS011;29263;48.172;11.484;2023-07-09T02:08:02;7.47;;;3.97;;
43664;SDS011;29263;48.172;11.484;2023-07-09T02:10:28;6.03;;;3.92;;
43664;SDS011;29263;48.172;11.484;2023-07-09T02:12:54;8.00;;;3.72;;
43664;SDS011;29263;48.172;11.484;2023-07-09T02:15:19;6.82;;;3.65;;
43664;SDS011;29263;48.172;11.484;2023-07-09T02:17:45;6.85;;;3.60;;
43664;SDS011;29263;48.172;11.484;2023-07-09T02:20:11;5.03;;;3.90;;
43664;SDS011;29263;48.172;11.484;2023-07-09T02:22:38;5.22;;;3.42;;
43664;SDS011;29263;48.172;11.484;2023-07-09T02:25:04;6.68;;;3.88;;
43664;SDS011;29263;48.172;11.484;2023-07-09T02:27:31;7.13;;;3.85;;
43664;SDS011;29263;48.172;11.484;2023-07-09T02:29:57;8.30;;;3.53;;
43664;SDS011;29263;48.172;11.484;2023-07-09T02:32:24;6.43;;;3.85;;
43664;SDS011;29263;48.172;11.484;2023-07-09T02:34:52;5.10;;;3.33;;
43664;SDS011;29263;48.172;11.484;2023-07-09T02:37:18;7.80;;;3.60;;
43664;SDS011;29263;48.172;11.484;2023-07-09T02:39:46;8.82;;;3.45;;
43664;SDS011;29263;48.172;11.484;2023-07-09T02:42:12;5.45;;;3.20;;
43664;SDS011;29263;48.172;11.484;2023-07-09T02:44:40;5.32;;;3.45;;
43664;SDS011;29263;48.172;11.484;2023-07-09T02:47:06;6.38;;;3.55;;
43664;SDS011;29263;48.172;11.484;2023-07-09T02:49:33;4.53;;;3.13;;
43664;SDS011;29263;48.172;11.484;2023-07-09T02:51:59;6.65;;;3.47;;
43664;SDS011;29263;48.172;11.484;2023-07-09T02:54:25;7.50;;;3.72;;
43664;SDS011;29263;48.172;11.484;2023-07-09T02:56:51;6.25;;;3.13;;
43664;SDS011;29263;48.172;11.484;2023-07-09T02:59:17;4.88;;;3.28;;
43664;SDS011;29263;48.172;11.484;2023-07-09T03:01:42;5.28;;;3.35;;
43664;SDS011;29263;48.172;11.484;2023-07-09T03:04:08;4.10;;;2.85;;
43664;SDS011;29263;48.172;11.484;2023-07-09T03:06:35;7.35;;;3.33;;
43664;SDS011;29263;48.172;11.484;2023-07-09T03:09:01;7.53;;;3.28;;
43664;SDS011;29263;48.172;11.484;2023-07-09T03:11:29;5.97;;;3.60;;
43664;SDS011;29263;48.172;11.484;2023-07-09T03:13:56;4.28;;;2.95;;
43664;SDS011;29263;48.172;11.484;2023-07-09T03:16:23;7.05;;;3.50;;
43664;SDS011;29263;48.172;11.484;2023-07-09T03:18:48;5.95;;;3.42;;
43664;SDS011;29263;48.172;11.484;2023-07-09T03:21:14;9.90;;;3.85;;
43664;SDS011;29263;48.172;11.484;2023-07-09T03:23:40;5.80;;;2.95;;
43664;SDS011;29263;48.172;11.484;2023-07-09T03:26:06;5.72;;;3.25;;
43664;SDS011;29263;48.172;11.484;2023-07-09T03:28:32;5.63;;;3.30;;
43664;SDS011;29263;48.172;11.484;2023-07-09T03:30:58;4.70;;;3.40;;
43664;SDS011;29263;48.172;11.484;2023-07-09T03:33:24;4.15;;;3.30;;
43664;SDS011;29263;48.172;11.484;2023-07-09T03:35:50;6.00;;;2.90;;
43664;SDS011;29263;48.172;11.484;2023-07-09T03:38:17;5.88;;;3.50;;
43664;SDS011;29263;48.172;11.484;2023-07-09T03:40:43;6.70;;;3.42;;
43664;SDS011;29263;48.172;11.484;2023-07-09T03:43:09;5.43;;;3.17;;
43664;SDS011;29263;48.172;11.484;2023-07-09T03:45:36;5.50;;;3.40;;
43664;SDS011;29263;48.172;11.484;2023-07-09T03:48:02;6.45;;;3.90;;
43664;SDS011;29263;48.172;11.484;2023-07-09T03:50:29;5.38;;;3.35;;
43664;SDS011;29263;48.172;11.484;2023-07-09T03:52:55;6.10;;;3.28;;
43664;SDS011;29263;48.172;11.484;2023-07-09T03:55:20;5.72;;;3.30;;
43664;SDS011;29263;48.172;11.484;2023-07-09T03:57:46;6.05;;;3.70;;
43664;SDS011;29263;48.172;11.484;2023-07-09T04:00:12;6.07;;;3.20;;
43664;SDS011;29263;48.172;11.484;2023-07-09T04:02:39;7.53;;;3.30;;
43664;SDS011;29263;48.172;11.484;2023-07-09T04:05:06;5.05;;;2.92;;
43664;SDS011;29263;48.172;11.484;2023-07-09T04:07:33;5.38;;;2.97;;
43664;SDS011;29263;48.172;11.484;2023-07-09T04:09:59;4.55;;;3.08;;
43664;SDS011;29263;48.172;11.484;2023-07-09T04:12:25;5.22;;;3.17;;
43664;SDS011;29263;48.172;11.484;2023-07-09T04:14:50;5.03;;;2.97;;
43664;SDS011;29263;48.172;11.484;2023-07-09T04:17:16;8.02;;;3.30;;
43664;SDS011;29263;48.172;11.484;2023-07-09T04:19:42;5.90;;;3.17;;
43664;SDS011;29263;48.172;11.484;2023-07-09T04:22:08;6.85;;;3.00;;
43664;SDS011;29263;48.172;11.484;2023-07-09T04:24:35;6.50;;;3.70;;
43664;SDS011;29263;48.172;11.484;2023-07-09T04:27:01;5.05;;;3.05;;
43664;SDS011;29263;48.172;11.484;2023-07-09T04:29:28;6.40;;;3.20;;
43664;SDS011;29263;48.172;11.484;2023-07-09T04:31:54;5.25;;;3.25;;
43664;SDS011;29263;48.172;11.484;2023-07-09T04:34:20;5.78;;;3.75;;
43664;SDS011;29263;48.172;11.484;2023-07-09T04:36:45;4.78;;;3.10;;
43664;SDS011;29263;48.172;11.484;2023-07-09T04:39:11;8.07;;;3.38;;
43664;SDS011;29263;48.172;11.484;2023-07-09T04:41:36;5.18;;;3.17;;
43664;SDS011;29263;48.172;11.484;2023-07-09T04:44:02;3.95;;;2.90;;
43664;SDS011;29263;48.172;11.484;2023-07-09T04:46:28;6.93;;;3.38;;
43664;SDS011;29263;48.172;11.484;2023-07-09T04:48:53;5.97;;;2.63;;
43664;SDS011;29263;48.172;11.484;2023-07-09T04:51:20;7.60;;;2.80;;
43664;SDS011;29263;48.172;11.484;2023-07-09T04:53:46;4.88;;;3.35;;
43664;SDS011;29263;48.172;11.484;2023-07-09T04:56:12;4.35;;;2.75;;
43664;SDS011;29263;48.172;11.484;2023-07-09T04:58:37;5.95;;;3.22;;
43664;SDS011;29263;48.172;11.484;2023-07-09T05:01:03;4.63;;;3.40;;
43664;SDS011;29263;48.172;11.484;2023-07-09T05:03:29;5.38;;;3.05;;
43664;SDS011;29263;48.172;11.484;2023-07-09T05:05:54;6.18;;;3.10;;
43664;SDS011;29263;48.172;11.484;2023-07-09T05:08:20;4.18;;;2.88;;
43664;SDS011;29263;48.172;11.484;2023-07-09T05:10:49;5.88;;;2.78;;
43664;SDS011;29263;48.172;11.484;2023-07-09T05:15:43;5.32;;;3.17;;
43664;SDS011;29263;48.172;11.484;2023-07-09T05:18:13;6.03;;;2.80;;
43664;SDS011;29263;48.172;11.484;2023-07-09T05:20:40;6.03;;;2.97;;
43664;SDS011;29263;48.172;11.484;2023-07-09T05:23:10;5.05;;;3.10;;
43664;SDS011;29263;48.172;11.484;2023-07-09T05:25:36;4.28;;;2.80;;
43664;SDS011;29263;48.172;11.484;2023-07-09T05:28:02;3.88;;;2.75;;
43664;SDS011;29263;48.172;11.484;2023-07-09T05:30:29;5.57;;;3.20;;
43664;SDS011;29263;48.172;11.484;2023-07-09T05:32:55;5.65;;;3.05;;
43664;SDS011;29263;48.172;11.484;2023-07-09T05:35:24;3.83;;;3.20;;
43664;SDS011;29263;48.172;11.484;2023-07-09T05:37:51;5.57;;;2.70;;
43664;SDS011;29263;48.172;11.484;2023-07-09T05:42:47;4.95;;;2.90;;
43664;SDS011;29263;48.172;11.484;2023-07-09T05:45:13;4.70;;;2.72;;
43664;SDS011;29263;48.172;11.484;2023-07-09T05:47:39;4.20;;;3.03;;
43664;SDS011;29263;48.172;11.484;2023-07-09T05:50:05;4.85;;;2.72;;
43664;SDS011;29263;48.172;11.484;2023-07-09T05:52:31;5.20;;;3.10;;
43664;SDS011;29263;48.172;11.484;2023-07-09T05:54:57;4.60;;;2.90;;
43664;SDS011;29263;48.172;11.484;2023-07-09T05:57:23;6.22;;;2.72;;
43664;SDS011;29263;48.172;11.484;2023-07-09T05:59:48;5.50;;;3.00;;
43664;SDS011;29263;48.172;11.484;2023-07-09T06:02:15;6.22;;;2.75;;
43664;SDS011;29263;48.172;11.484;2023-07-09T06:04:43;4.88;;;3.15;;
43664;SDS011;29263;48.172;11.484;2023-07-09T06:07:09;5.68;;;2.47;;
43664;SDS011;29263;48.172;11.484;2023-07-09T06:09:35;3.83;;;2.75;;
43664;SDS011;29263;48.172;11.484;2023-07-09T06:12:01;3.65;;;2.30;;
43664;SDS011;29263;48.172;11.484;2023-07-09T06:14:27;4.07;;;2.80;;
43664;SDS011;29263;48.172;11.484;2023-07-09T06:16:53;4.25;;;2.85;;
43664;SDS011;29263;48.172;11.484;2023-07-09T06:19:19;5.88;;;2.55;;
43664;SDS011;29263;48.172;11.484;2023-07-09T06:21:44;4.70;;;2.50;;
43664;SDS011;29263;48.172;11.484;2023-07-09T06:24:10;5.25;;;2.42;;
43664;SDS011;29263;48.172;11.484;2023-07-09T06:26:36;5.03;;;2.13;;
43664;SDS011;29263;48.172;11.484;2023-07-09T06:29:01;5.22;;;2.20;;
43664;SDS011;29263;48.172;11.484;2023-07-09T06:31:27;8.55;;;2.45;;
43664;SDS011;29263;48.172;11.484;2023-07-09T06:33:52;8.02;;;3.17;;
43664;SDS011;29263;48.172;11.484;2023-07-09T06:36:18;4.47;;;2.65;;
43664;SDS011;29263;48.172;11.484;2023-07-09T06:38:44;4.82;;;2.40;;
43664;SDS011;29263;48.172;11.484;2023-07-09T06:41:11;4.03;;;2.78;;
43664;SDS011;29263;48.172;11.484;2023-07-09T06:43:37;4.65;;;2.60;;
43664;SDS011;29263;48.172;11.484;2023-07-09T06:46:04;5.38;;;2.45;;
43664;SDS011;29263;48.172;11.484;2023-07-09T06:48:31;3.30;;;2.28;;
43664;SDS011;29263;48.172;11.484;2023-07-09T06:50:57;5.53;;;2.45;;
43664;SDS011;29263;48.172;11.484;2023-07-09T06:53:24;4.00;;;2.20;;
43664;SDS011;29263;48.172;11.484;2023-07-09T06:55:51;4.85;;;2.67;;
43664;SDS011;29263;48.172;11.484;2023-07-09T06:58:20;3.88;;;2.13;;
43664;SDS011;29263;48.172;11.484;2023-07-09T07:00:50;3.90;;;2.45;;
43664;SDS011;29263;48.172;11.484;2023-07-09T07:03:16;3.58;;;2.13;;
43664;SDS011;29263;48.172;11.484;2023-07-09T07:05:43;3.80;;;2.45;;
43664;SDS011;29263;48.172;11.484;2023-07-09T07:08:14;3.92;;;2.20;;
43664;SDS011;29263;48.172;11.484;2023-07-09T07:10:41;3.63;;;2.15;;
43664;SDS011;29263;48.172;11.484;2023-07-09T07:13:07;3.75;;;2.10;;
43664;SDS011;29263;48.172;11.484;2023-07-09T07:15:34;4.55;;;2.53;;
43664;SDS011;29263;48.172;11.484;2023-07-09T07:18:02;3.65;;;2.10;;
43664;SDS011;29263;48.172;11.484;2023-07-09T07:20:28;3.70;;;2.22;;
43664;SDS011;29263;48.172;11.484;2023-07-09T07:22:55;3.65;;;2.25;;
43664;SDS011;29263;48.172;11.484;2023-07-09T07:25:21;4.20;;;2.22;;
43664;SDS011;29263;48.172;11.484;2023-07-09T07:27:47;3.90;;;2.28;;
43664;SDS011;29263;48.172;11.484;2023-07-09T07:30:13;4.05;;;2.40;;
43664;SDS011;29263;48.172;11.484;2023-07-09T07:32:39;4.25;;;2.15;;
43664;SDS011;29263;48.172;11.484;2023-07-09T07:35:09;4.28;;;2.05;;
43664;SDS011;29263;48.172;11.484;2023-07-09T07:37:35;3.78;;;2.15;;
43664;SDS011;29263;48.172;11.484;2023-07-09T07:40:00;4.55;;;2.42;;
43664;SDS011;29263;48.172;11.484;2023-07-09T07:42:26;4.82;;;2.10;;
43664;SDS011;29263;48.172;11.484;2023-07-09T07:44:52;3.47;;;2.00;;
43664;SDS011;29263;48.172;11.484;2023-07-09T07:47:18;5.10;;;2.35;;
43664;SDS011;29263;48.172;11.484;2023-07-09T07:49:44;3.67;;;2.10;;
43664;SDS011;29263;48.172;11.484;2023-07-09T07:52:10;3.55;;;2.20;;
43664;SDS011;29263;48.172;11.484;2023-07-09T07:54:35;3.15;;;2.28;;
43664;SDS011;29263;48.172;11.484;2023-07-09T07:57:01;2.55;;;2.25;;
43664;SDS011;29263;48.172;11.484;2023-07-09T07:59:27;5.40;;;2.17;;
43664;SDS011;29263;48.172;11.484;2023-07-09T08:01:53;4.28;;;2.58;;
43664;SDS011;29263;48.172;11.484;2023-07-09T08:04:19;4.25;;;2.35;;
43664;SDS011;29263;48.172;11.484;2023-07-09T08:06:44;3.25;;;2.30;;
43664;SDS011;29263;48.172;11.484;2023-07-09T08:09:11;4.40;;;2.45;;
43664;SDS011;29263;48.172;11.484;2023-07-09T08:11:36;5.03;;;2.13;;
43664;SDS011;29263;48.172;11.484;2023-07-09T08:14:02;3.35;;;2.35;;
43664;SDS011;29263;48.172;11.484;2023-07-09T08:16:27;4.80;;;2.47;;
43664;SDS011;29263;48.172;11.484;2023-07-09T08:18:54;5.63;;;2.40;;
43664;SDS011;29263;48.172;11.484;2023-07-09T08:21:19;4.35;;;2.33;;
43664;SDS011;29263;48.172;11.484;2023-07-09T08:23:45;3.28;;;2.38;;
43664;SDS011;29263;48.172;11.484;2023-07-09T08:26:11;5.43;;;2.30;;
43664;SDS011;29263;48.172;11.484;2023-07-09T08:28:37;3.47;;;2.40;;
43664;SDS011;29263;48.172;11.484;2023-07-09T08:31:03;4.20;;;2.33;;
43664;SDS011;29263;48.172;11.484;2023-07-09T08:33:28;6.68;;;2.85;;
43664;SDS011;29263;48.172;11.484;2023-07-09T08:35:54;3.10;;;2.38;;
43664;SDS011;29263;48.172;11.484;2023-07-09T08:38:20;5.03;;;2.53;;
43664;SDS011;29263;48.172;11.484;2023-07-09T08:40:57;4.30;;;2.47;;
43664;SDS011;29263;48.172;11.484;2023-07-09T08:43:29;4.35;;;2.92;;
43664;SDS011;29263;48.172;11.484;2023-07-09T08:49:11;4.38;;;2.35;;
43664;SDS011;29263;48.172;11.484;2023-07-09T08:51:46;4.55;;;2.50;;
43664;SDS011;29263;48.172;11.484;2023-07-09T08:54:20;5.47;;;2.58;;
43664;SDS011;29263;48.172;11.484;2023-07-09T08:56:51;4.35;;;2.47;;
43664;SDS011;29263;48.172;11.484;2023-07-09T08:59:18;5.32;;;2.63;;
43664;SDS011;29263;48.172;11.484;2023-07-09T09:01:52;7.13;;;2.70;;
43664;SDS011;29263;48.172;11.484;2023-07-09T09:04:27;5.55;;;2.55;;
43664;SDS011;29263;48.172;11.484;2023-07-09T09:07:00;6.45;;;3.08;;
43664;SDS011;29263;48.172;11.484;2023-07-09T09:09:54;7.00;;;2.45;;
43664;SDS011;29263;48.172;11.484;2023-07-09T09:12:25;5.10;;;2.22;;
43664;SDS011;29263;48.172;11.484;2023-07-09T09:15:04;4.32;;;2.08;;
43664;SDS011;29263;48.172;11.484;2023-07-09T09:17:35;4.40;;;2.33;;
43664;SDS011;29263;48.172;11.484;2023-07-09T09:20:08;6.20;;;2.55;;
43664;SDS011;29263;48.172;11.484;2023-07-09T09:22:41;5.10;;;2.10;;
43664;SDS011;29263;48.172;11.484;2023-07-09T09:27:39;5.37;;;2.47;;
43664;SDS011;29263;48.172;11.484;2023-07-09T09:30:08;4.00;;;2.63;;
43664;SDS011;29263;48.172;11.484;2023-07-09T09:32:45;4.15;;;2.03;;
43664;SDS011;29263;48.172;11.484;2023-07-09T09:35:33;4.28;;;2.60;;
43664;SDS011;29263;48.172;11.484;2023-07-09T09:38:01;4.32;;;2.55;;
43664;SDS011;29263;48.172;11.484;2023-07-09T09:40:34;3.58;;;2.10;;
43664;SDS011;29263;48.172;11.484;2023-07-09T09:43:01;3.53;;;2.42;;
43664;SDS011;29263;48.172;11.484;2023-07-09T09:45:35;6.10;;;2.40;;
43664;SDS011;29263;48.172;11.484;2023-07-09T09:48:17;6.05;;;2.30;;
43664;SDS011;29263;48.172;11.484;2023-07-09T09:50:54;2.83;;;2.03;;
43664;SDS011;29263;48.172;11.484;2023-07-09T09:53:25;3.55;;;2.20;;
43664;SDS011;29263;48.172;11.484;2023-07-09T09:55:53;4.90;;;2.40;;
43664;SDS011;29263;48.172;11.484;2023-07-09T09:58:20;3.35;;;2.70;;
43664;SDS011;29263;48.172;11.484;2023-07-09T10:00:51;3.15;;;2.38;;
43664;SDS011;29263;48.172;11.484;2023-07-09T10:03:18;4.15;;;2.10;;
43664;SDS011;29263;48.172;11.484;2023-07-09T10:05:48;9.25;;;2.13;;
43664;SDS011;29263;48.172;11.484;2023-07-09T10:08:28;5.93;;;2.17;;
43664;SDS011;29263;48.172;11.484;2023-07-09T10:11:04;8.10;;;2.38;;
43664;SDS011;29263;48.172;11.484;2023-07-09T10:13:37;3.53;;;2.27;;
43664;SDS011;29263;48.172;11.484;2023-07-09T10:16:24;6.90;;;2.60;;
43664;SDS011;29263;48.172;11.484;2023-07-09T10:18:59;4.22;;;2.20;;
43664;SDS011;29263;48.172;11.484;2023-07-09T10:21:34;4.53;;;2.53;;
43664;SDS011;29263;48.172;11.484;2023-07-09T10:26:40;5.35;;;2.42;;
43664;SDS011;29263;48.172;11.484;2023-07-09T10:31:58;5.50;;;2.65;;
43664;SDS011;29263;48.172;11.484;2023-07-09T10:37:26;10.52;;;3.67;;
43664;SDS011;29263;48.172;11.484;2023-07-09T10:39:58;6.72;;;2.38;;
43664;SDS011;29263;48.172;11.484;2023-07-09T10:42:30;6.90;;;2.85;;
43664;SDS011;29263;48.172;11.484;2023-07-09T10:45:09;4.88;;;2.15;;
43664;SDS011;29263;48.172;11.484;2023-07-09T10:47:38;5.88;;;2.25;;
43664;SDS011;29263;48.172;11.484;2023-07-09T10:50:12;5.13;;;2.58;;
43664;SDS011;29263;48.172;11.484;2023-07-09T10:52:46;5.88;;;2.55;;
43664;SDS011;29263;48.172;11.484;2023-07-09T10:55:16;5.38;;;2.67;;
43664;SDS011;29263;48.172;11.484;2023-07-09T11:00:44;3.55;;;2.45;;
43664;SDS011;29263;48.172;11.484;2023-07-09T11:03:13;4.72;;;2.40;;
43664;SDS011;29263;48.172;11.484;2023-07-09T11:05:43;5.13;;;2.65;;
43664;SDS011;29263;48.172;11.484;2023-07-09T11:08:17;5.68;;;2.42;;
43664;SDS011;29263;48.172;11.484;2023-07-09T11:10:51;6.15;;;2.20;;
43664;SDS011;29263;48.172;11.484;2023-07-09T11:16:13;4.32;;;2.20;;
43664;SDS011;29263;48.172;11.484;2023-07-09T11:18:52;3.78;;;2.03;;
43664;SDS011;29263;48.172;11.484;2023-07-09T11:21:21;4.07;;;2.20;;
43664;SDS011;29263;48.172;11.484;2023-07-09T11:23:49;3.33;;;2.20;;
43664;SDS011;29263;48.172;11.484;2023-07-09T11:26:32;3.40;;;2.38;;
43664;SDS011;29263;48.172;11.484;2023-07-09T11:31:37;4.82;;;2.40;;
43664;SDS011;29263;48.172;11.484;2023-07-09T11:34:15;4.82;;;2.25;;
43664;SDS011;29263;48.172;11.484;2023-07-09T11:36:56;3.90;;;2.10;;
43664;SDS011;29263;48.172;11.484;2023-07-09T11:39:41;4.25;;;2.00;;
43664;SDS011;29263;48.172;11.484;2023-07-09T11:47:33;6.22;;;2.28;;
43664;SDS011;29263;48.172;11.484;2023-07-09T11:52:55;2.67;;;1.80;;
43664;SDS011;29263;48.172;11.484;2023-07-09T11:55:28;8.90;;;2.15;;
43664;SDS011;29263;48.172;11.484;2023-07-09T11:57:59;4.55;;;2.63;;
43664;SDS011;29263;48.172;11.484;2023-07-09T12:00:30;3.20;;;2.33;;
43664;SDS011;29263;48.172;11.484;2023-07-09T12:03:05;3.28;;;2.08;;
43664;SDS011;29263;48.172;11.484;2023-07-09T12:05:32;7.40;;;2.22;;
43664;SDS011;29263;48.172;11.484;2023-07-09T12:07:58;3.58;;;1.85;;
43664;SDS011;29263;48.172;11.484;2023-07-09T12:10:27;4.03;;;1.92;;
43664;SDS011;29263;48.172;11.484;2023-07-09T12:12:57;4.00;;;2.00;;
43664;SDS011;29263;48.172;11.484;2023-07-09T12:15:25;2.78;;;1.80;;
43664;SDS011;29263;48.172;11.484;2023-07-09T12:17:57;3.85;;;1.80;;
43664;SDS011;29263;48.172;11.484;2023-07-09T12:20:25;3.80;;;2.03;;
43664;SDS011;29263;48.172;11.484;2023-07-09T12:22:54;3.70;;;2.17;;
43664;SDS011;29263;48.172;11.484;2023-07-09T12:25:23;4.72;;;2.50;;
43664;SDS011;29263;48.172;11.484;2023-07-09T12:27:52;3.65;;;1.95;;
43664;SDS011;29263;48.172;11.484;2023-07-09T12:30:18;4.00;;;2.28;;
43664;SDS011;29263;48.172;11.484;2023-07-09T12:32:46;5.70;;;2.50;;
43664;SDS011;29263;48.172;11.484;2023-07-09T12:35:15;4.40;;;2.15;;
43664;SDS011;29263;48.172;11.484;2023-07-09T12:37:41;7.90;;;2.85;;
43664;SDS011;29263;48.172;11.484;2023-07-09T12:40:12;4.65;;;2.20;;
43664;SDS011;29263;48.172;11.484;2023-07-09T12:42:42;3.70;;;2.33;;
43664;SDS011;29263;48.172;11.484;2023-07-09T12:45:19;3.83;;;1.92;;
43664;SDS011;29263;48.172;11.484;2023-07-09T12:47:46;4.75;;;2.42;;
43664;SDS011;29263;48.172;11.484;2023-07-09T12:50:26;3.35;;;2.63;;
43664;SDS011;29263;48.172;11.484;2023-07-09T12:52:59;3.10;;;1.92;;
43664;SDS011;29263;48.172;11.484;2023-07-09T12:55:28;6.63;;;2.60;;
43664;SDS011;29263;48.172;11.484;2023-07-09T12:58:02;3.67;;;2.28;;
43664;SDS011;29263;48.172;11.484;2023-07-09T13:00:30;5.43;;;2.25;;
43664;SDS011;29263;48.172;11.484;2023-07-09T13:02:57;3.38;;;2.40;;
43664;SDS011;29263;48.172;11.484;2023-07-09T13:05:24;3.22;;;2.35;;
43664;SDS011;29263;48.172;11.484;2023-07-09T13:07:55;5.55;;;2.67;;
43664;SDS011;29263;48.172;11.484;2023-07-09T13:10:28;8.18;;;2.72;;
43664;SDS011;29263;48.172;11.484;2023-07-09T13:12:56;4.95;;;2.40;;
43664;SDS011;29263;48.172;11.484;2023-07-09T13:17:56;4.85;;;2.50;;
43664;SDS011;29263;48.172;11.484;2023-07-09T13:20:27;3.72;;;2.30;;
43664;SDS011;29263;48.172;11.484;2023-07-09T13:22:54;5.82;;;2.70;;
43664;SDS011;29263;48.172;11.484;2023-07-09T13:25:20;5.47;;;2.47;;
43664;SDS011;29263;48.172;11.484;2023-07-09T13:27:46;5.85;;;2.50;;
43664;SDS011;29263;48.172;11.484;2023-07-09T13:30:12;5.22;;;2.70;;
43664;SDS011;29263;48.172;11.484;2023-07-09T13:32:37;7.55;;;2.30;;
43664;SDS011;29263;48.172;11.484;2023-07-09T13:35:12;4.55;;;2.22;;
43664;SDS011;29263;48.172;11.484;2023-07-09T13:37:43;7.85;;;2.22;;
43664;SDS011;29263;48.172;11.484;2023-07-09T13:40:11;5.68;;;2.95;;
43664;SDS011;29263;48.172;11.484;2023-07-09T13:42:41;5.90;;;2.55;;
43664;SDS011;29263;48.172;11.484;2023-07-09T13:45:18;3.55;;;2.00;;
43664;SDS011;29263;48.172;11.484;2023-07-09T13:47:47;5.55;;;2.85;;
43664;SDS011;29263;48.172;11.484;2023-07-09T13:50:15;2.88;;;2.20;;
43664;SDS011;29263;48.172;11.484;2023-07-09T13:52:41;4.10;;;2.15;;
43664;SDS011;29263;48.172;11.484;2023-07-09T13:55:10;3.40;;;2.47;;
43664;SDS011;29263;48.172;11.484;2023-07-09T13:57:47;3.15;;;2.60;;
43664;SDS011;29263;48.172;11.484;2023-07-09T14:00:13;4.15;;;2.22;;
43664;SDS011;29263;48.172;11.484;2023-07-09T14:02:39;3.60;;;2.08;;
43664;SDS011;29263;48.172;11.484;2023-07-09T14:05:06;4.45;;;2.35;;
43664;SDS011;29263;48.172;11.484;2023-07-09T14:07:35;3.42;;;2.42;;
43664;SDS011;29263;48.172;11.484;2023-07-09T14:10:04;4.55;;;2.20;;
43664;SDS011;29263;48.172;11.484;2023-07-09T14:12:32;5.25;;;2.50;;
43664;SDS011;29263;48.172;11.484;2023-07-09T14:15:01;5.18;;;2.25;;
43664;SDS011;29263;48.172;11.484;2023-07-09T14:17:27;3.80;;;2.28;;
43664;SDS011;29263;48.172;11.484;2023-07-09T14:19:53;5.88;;;2.35;;
43664;SDS011;29263;48.172;11.484;2023-07-09T14:22:35;6.25;;;2.35;;
43664;SDS011;29263;48.172;11.484;2023-07-09T14:25:02;4.78;;;2.42;;
43664;SDS011;29263;48.172;11.484;2023-07-09T14:27:29;7.20;;;2.40;;
43664;SDS011;29263;48.172;11.484;2023-07-09T14:29:55;3.47;;;2.10;;
43664;SDS011;29263;48.172;11.484;2023-07-09T14:34:56;3.63;;;2.10;;
43664;SDS011;29263;48.172;11.484;2023-07-09T14:37:22;5.05;;;1.77;;
43664;SDS011;29263;48.172;11.484;2023-07-09T14:39:48;5.47;;;2.20;;
43664;SDS011;29263;48.172;11.484;2023-07-09T14:42:14;3.20;;;2.10;;
43664;SDS011;29263;48.172;11.484;2023-07-09T14:44:41;3.42;;;2.17;;
43664;SDS011;29263;48.172;11.484;2023-07-09T14:47:10;4.13;;;2.63;;
43664;SDS011;29263;48.172;11.484;2023-07-09T14:49:41;4.18;;;2.35;;
43664;SDS011;29263;48.172;11.484;2023-07-09T14:52:16;5.22;;;2.88;;
43664;SDS011;29263;48.172;11.484;2023-07-09T14:54:44;5.32;;;2.92;;
43664;SDS011;29263;48.172;11.484;2023-07-09T14:57:16;3.78;;;2.25;;
43664;SDS011;29263;48.172;11.484;2023-07-09T14:59:48;4.07;;;2.38;;
43664;SDS011;29263;48.172;11.484;2023-07-09T15:04:58;4.75;;;2.20;;
43664;SDS011;29263;48.172;11.484;2023-07-09T15:07:23;8.48;;;2.45;;
43664;SDS011;29263;48.172;11.484;2023-07-09T15:09:54;5.88;;;2.65;;
43664;SDS011;29263;48.172;11.484;2023-07-09T15:12:28;5.28;;;2.45;;
43664;SDS011;29263;48.172;11.484;2023-07-09T15:15:01;3.47;;;2.72;;
43664;SDS011;29263;48.172;11.484;2023-07-09T15:17:38;6.00;;;2.50;;
43664;SDS011;29263;48.172;11.484;2023-07-09T15:20:04;4.43;;;2.08;;
43664;SDS011;29263;48.172;11.484;2023-07-09T15:22:33;5.30;;;2.22;;
43664;SDS011;29263;48.172;11.484;2023-07-09T15:25:00;5.40;;;2.38;;
43664;SDS011;29263;48.172;11.484;2023-07-09T15:27:26;5.40;;;2.30;;